Flight Track Log - Related Links

Times and Time Zones

All times are in EDT time to prevent confusion due to time zone crossing. See the UAL252 flight status page for this flight to view local times or setup timezone preferences in your user account.

Time Position Orientation Groundspeed Altitude Reporting Facility
EDT Latitude Longitude Course Direction KTS MPH feet Rate Location/Type
Tue 10:08:07 PM 29.9950 -95.3636 23° Northeast 165 190 900  Level Houston Center
Tue 10:09:39 PM 30.0772 -95.3442 12° North 257 296 3,500 1,770 Climbing Houston Center
Tue 10:10:09 PM 30.1150 -95.3261 22° Northeast 266 306 4,500 3,033 Climbing Houston Center
Tue 10:11:00 PM 30.3820 -95.0145 35° Northeast  Level FlightAware Approximate
Tue 10:11:10 PM 30.1883 -95.2861 25° Northeast 292 336 8,100  Level Houston Center
Tue 10:12:00 PM 30.4793 -94.9305 30° Northeast  Level FlightAware Approximate
Tue 10:12:12 PM 30.2483 -95.2186 44° Northeast 307 353 11,100  Level Houston Center
Tue 10:13:00 PM 30.5834 -94.8583 23° Northeast  Level FlightAware Approximate
Tue 10:13:13 PM 30.3128 -95.1336 49° Northeast 352 405 12,300  Level Houston Center
Tue 10:14:14 PM 30.3833 -95.0350 50° Northeast 396 456 14,300 1,967 Climbing Houston Center
Tue 10:15:15 PM 30.4761 -94.9514 38° Northeast 417 480 16,300 1,869 Climbing Houston Center
Tue 10:16:16 PM 30.5739 -94.8772 33° Northeast 421 484 18,100 1,756 Climbing Houston Center
Tue 10:17:18 PM 30.6731 -94.8003 34° Northeast 430 495 19,900 1,707 Climbing Houston Center
Tue 10:18:19 PM 30.7756 -94.7211 34° Northeast 443 510 21,600 1,623 Climbing Houston Center
Tue 10:19:20 PM 30.8775 -94.6431 33° Northeast 441 507 23,200 1,672 Climbing Houston Center
Tue 10:20:21 PM 31.0028 -94.5453 34° Northeast 453 521 25,000 1,512 Climbing Houston Center
Tue 10:21:23 PM 31.1086 -94.4628 34° Northeast 463 533 26,300 1,366 Climbing Houston Center
Tue 10:22:24 PM 31.2147 -94.3806 34° Northeast 463 533 27,800 1,574 Climbing Houston Center
Tue 10:23:25 PM 31.3208 -94.2983 33° Northeast 461 531 29,500 1,574 Climbing Houston Center
Tue 10:24:26 PM 31.4244 -94.2175 34° Northeast 453 521 31,000 927 Climbing Houston Center
Tue 10:25:28 PM 31.5267 -94.1375 34° Northeast 445 512 31,400 1,073 Climbing Houston Center
Tue 10:26:29 PM 31.6289 -94.0561 34° Northeast 443 510 33,200 1,574 Climbing Houston Center
Tue 10:27:30 PM 31.7094 -93.9517 48° Northeast 434 499 34,600 927 Climbing Houston Center
Tue 10:28:32 PM 31.7997 -93.8194 51° Northeast 435 501 35,100 732 Climbing Houston Center
Tue 10:29:33 PM 31.8764 -93.7056 52° Northeast 440 506 36,100 934 Climbing Houston Center
Tue 10:30:34 PM 31.9519 -93.5917 52° Northeast 441 507 37,000 443 Climbing Houston Center
Tue 10:31:35 PM 32.0275 -93.4783 52° Northeast 441 507 37,000  Level Houston Center
Tue 10:32:37 PM 32.1033 -93.3639 52° Northeast 440 506 37,000  Level Houston Center
Tue 10:34:21 PM 32.2414 -93.1472 53° Northeast 449 517 37,000  Level Fort Worth Center
Tue 10:35:21 PM 32.3192 -93.0428 49° Northeast 442 509 37,000  Level Fort Worth Center
Tue 10:36:21 PM 32.3922 -92.9261 53° Northeast 437 503 37,000  Level Fort Worth Center
Tue 10:37:21 PM 32.4692 -92.8042 53° Northeast 450 518 37,000  Level Fort Worth Center
Tue 10:38:21 PM 32.5442 -92.6869 53° Northeast 450 518 37,000  Level Fort Worth Center
Tue 10:39:21 PM 32.6153 -92.5772 52° Northeast 443 510 37,000  Level Fort Worth Center
Tue 10:40:21 PM 32.6919 -92.4594 52° Northeast 443 510 37,000  Level Fort Worth Center
Tue 10:41:21 PM 32.7689 -92.3467 51° Northeast 438 504 37,000  Level Fort Worth Center
Tue 10:42:21 PM 32.8436 -92.2311 52° Northeast 432 497 37,000  Level Fort Worth Center
Tue 10:43:55 PM 32.9569 -92.0483 54° Northeast 433 498 37,000  Level Memphis Center
Tue 10:44:55 PM 33.0272 -91.9356 53° Northeast 433 498 37,000  Level Memphis Center
Tue 10:45:55 PM 33.1039 -91.8181 52° Northeast 433 498 37,000  Level Memphis Center
Tue 10:46:55 PM 33.1742 -91.7000 55° Northeast 433 498 37,000  Level Memphis Center
Tue 10:47:55 PM 33.2464 -91.5869 53° Northeast 433 498 37,000  Level Memphis Center
Tue 10:48:55 PM 33.3122 -91.4608 58° Northeast 433 498 37,000  Level Memphis Center
Tue 10:49:55 PM 33.3758 -91.3350 59° Northeast 433 498 37,000  Level Memphis Center
Tue 10:50:55 PM 33.4394 -91.2086 59° Northeast 439 505 37,000  Level Memphis Center
Tue 10:51:55 PM 33.5006 -91.0822 60° Northeast 439 505 37,000  Level Memphis Center
Tue 10:52:55 PM 33.5661 -90.9581 58° Northeast 439 505 37,000  Level Memphis Center
Tue 10:53:55 PM 33.6250 -90.8311 61° Northeast 439 505 37,000  Level Memphis Center
Tue 10:54:55 PM 33.6900 -90.7042 58° Northeast 439 505 37,000  Level Memphis Center
Tue 10:55:55 PM 33.7508 -90.5794 60° Northeast 439 505 37,000  Level Memphis Center
Tue 10:56:55 PM 33.8117 -90.4497 61° Northeast 439 505 37,000  Level Memphis Center
Tue 10:57:55 PM 33.8658 -90.3397 59° Northeast 439 505 37,000  Level Memphis Center
Tue 10:58:55 PM 33.9264 -90.2094 61° Northeast 444 511 37,000  Level Memphis Center
Tue 10:59:55 PM 33.9886 -90.0792 60° Northeast 439 505 37,000  Level Memphis Center
Tue 11:00:55 PM 34.0489 -89.9511 60° Northeast 439 505 37,000  Level Memphis Center
Tue 11:01:55 PM 34.1131 -89.8228 59° Northeast 439 505 37,000  Level Memphis Center
Tue 11:02:55 PM 34.1731 -89.6944 61° Northeast 444 511 37,000  Level Memphis Center
Tue 11:03:55 PM 34.2328 -89.5633 61° Northeast 439 505 37,000  Level Memphis Center
Tue 11:04:55 PM 34.2967 -89.4369 59° Northeast 439 505 37,000  Level Memphis Center
Tue 11:05:55 PM 34.3561 -89.3056 61° Northeast 439 505 37,000  Level Memphis Center
Tue 11:06:55 PM 34.4194 -89.1739 60° Northeast 439 505 37,000  Level Memphis Center
Tue 11:07:55 PM 34.4850 -89.0342 60° Northeast 439 505 37,000  Level Memphis Center
Tue 11:08:55 PM 34.5461 -88.9022 61° Northeast 439 505 37,000  Level Memphis Center
Tue 11:09:55 PM 34.6072 -88.7800 59° Northeast 433 498 37,000  Level Memphis Center
Tue 11:10:55 PM 34.6658 -88.6453 62° Northeast 438 504 37,000  Level Memphis Center
Tue 11:11:55 PM 34.7286 -88.5150 60° Northeast 438 504 37,000  Level Memphis Center
Tue 11:12:55 PM 34.7892 -88.3897 59° Northeast 433 498 37,000  Level Memphis Center
Tue 11:13:55 PM 34.8497 -88.2592 60° Northeast 433 498 37,000  Level Memphis Center
Tue 11:14:55 PM 34.9100 -88.1211 62° Northeast 439 505 37,000  Level Memphis Center
Tue 11:15:55 PM 34.9700 -87.9903 61° Northeast 446 513 37,000  Level Memphis Center
Tue 11:16:55 PM 35.0261 -87.8619 62° Northeast 435 501 37,000  Level Memphis Center
Tue 11:17:55 PM 35.0858 -87.7358 60° Northeast 429 494 37,000  Level Memphis Center
Tue 11:18:55 PM 35.1417 -87.6122 61° Northeast 429 494 37,000  Level Memphis Center
Tue 11:19:55 PM 35.2011 -87.4781 62° Northeast 441 507 37,000  Level Memphis Center
Tue 11:20:55 PM 35.2586 -87.3464 62° Northeast 441 507 37,000  Level Memphis Center
Tue 11:21:55 PM 35.3200 -87.2117 61° Northeast 441 507 37,000  Level Memphis Center
Tue 11:22:55 PM 35.3808 -87.0669 63° Northeast 441 507 37,000  Level Memphis Center
Tue 11:23:55 PM 35.4339 -86.9500 61° Northeast 436 502 37,000  Level Memphis Center
Tue 11:24:55 PM 35.4928 -86.8150 62° Northeast 441 507 37,000  Level Memphis Center
Tue 11:25:55 PM 35.5472 -86.6828 63° Northeast 435 501 37,000  Level Memphis Center
Tue 11:26:55 PM 35.6078 -86.5472 61° Northeast 440 506 37,000  Level Memphis Center
Tue 11:27:55 PM 35.6642 -86.4142 62° Northeast 440 506 37,000  Level Memphis Center
Tue 11:28:55 PM 35.7225 -86.2811 62° Northeast 440 506 37,000  Level Memphis Center
Tue 11:29:55 PM 35.7806 -86.1478 62° Northeast 440 506 37,000  Level Memphis Center
Tue 11:30:55 PM 35.8367 -86.0169 62° Northeast 440 506 37,000  Level Memphis Center
Tue 11:32:39 PM 35.9350 -85.7869 62° Northeast 434 499 37,000  Level Indianapolis Center
Tue 11:33:40 PM 35.9914 -85.6539 62° Northeast 435 501 37,000  Level Indianapolis Center
Tue 11:34:41 PM 36.0481 -85.5214 62° Northeast 435 501 37,000  Level Indianapolis Center
Tue 11:35:43 PM 36.1050 -85.3886 62° Northeast 434 499 37,000  Level Indianapolis Center
Tue 11:36:44 PM 36.1608 -85.2533 63° Northeast 438 504 37,000  Level Indianapolis Center
Tue 11:37:45 PM 36.2183 -85.1167 62° Northeast 443 510 37,000  Level Indianapolis Center
Tue 11:38:46 PM 36.2761 -84.9797 62° Northeast 446 513 37,000 49 Level Indianapolis Center
Tue 11:39:47 PM 36.3331 -84.8397 63° Northeast 452 520 37,100  Climbing Indianapolis Center
Tue 11:40:49 PM 36.4003 -84.6750 63° Northeast 447 514 37,000 -49 Descending Indianapolis Center
Tue 11:41:50 PM 36.4561 -84.5386 63° Northeast 443 510 37,000  Level Indianapolis Center
Tue 11:42:51 PM 36.5106 -84.4014 64° Northeast 443 510 37,000  Level Indianapolis Center
Tue 11:43:52 PM 36.5636 -84.2756 62° Northeast 440 506 37,000  Level Indianapolis Center
Tue 11:44:53 PM 36.6189 -84.1378 63° Northeast 442 509 37,000  Level Indianapolis Center
Tue 11:45:55 PM 36.6744 -83.9983 64° Northeast 447 514 37,000  Level Indianapolis Center
Tue 11:46:56 PM 36.7308 -83.8603 63° Northeast 447 514 37,000  Level Indianapolis Center
Tue 11:47:57 PM 36.7975 -83.6961 63° Northeast 452 520 37,000  Level Indianapolis Center
Tue 11:48:58 PM 36.8536 -83.5558 63° Northeast 450 518 37,000  Level Indianapolis Center
Tue 11:50:00 PM 36.9092 -83.4150 64° Northeast 451 519 37,000  Level Indianapolis Center
Tue 11:51:01 PM 36.9658 -83.2733 63° Northeast 452 520 37,000  Level Indianapolis Center
Tue 11:52:02 PM 37.0217 -83.1300 64° Northeast 454 522 37,000  Level Indianapolis Center
Tue 11:53:03 PM 37.0794 -82.9856 63° Northeast 456 525 37,000  Level Indianapolis Center
Tue 11:54:04 PM 37.1356 -82.8386 64° Northeast 460 529 37,000  Level Indianapolis Center
Tue 11:55:05 PM 37.1917 -82.6928 64° Northeast 460 529 37,000  Level Indianapolis Center
Tue 11:56:07 PM 37.2464 -82.5489 64° Northeast 455 524 37,000  Level Indianapolis Center
Tue 11:57:08 PM 37.3033 -82.4031 64° Northeast 462 532 37,000  Level Indianapolis Center
Tue 11:58:09 PM 37.3578 -82.2575 65° Northeast 461 531 37,000  Level Indianapolis Center
Tue 11:59:10 PM 37.4150 -82.1114 64° Northeast 463 533 37,000  Level Indianapolis Center
Wed 12:00:11 AM 37.4714 -81.9625 64° Northeast 469 540 37,000  Level Indianapolis Center
Wed 12:01:12 AM 37.5267 -81.8128 65° Northeast 471 542 37,000  Level Indianapolis Center
Wed 12:02:13 AM 37.5825 -81.6614 65° Northeast 475 547 37,000  Level Indianapolis Center
Wed 12:03:15 AM 37.6447 -81.4944 65° Northeast 477 549 37,000  Level Indianapolis Center
Wed 12:04:16 AM 37.6992 -81.3475 65° Northeast 476 548 37,000  Level Indianapolis Center
Wed 12:05:17 AM 37.7547 -81.1997 65° Northeast 478 550 37,000  Level Indianapolis Center
Wed 12:06:18 AM 37.8181 -81.0200 66° East 480 552 37,000  Level Indianapolis Center
Wed 12:07:19 AM 37.8733 -80.8631 66° East 481 554 37,000  Level Indianapolis Center
Wed 12:08:20 AM 37.9278 -80.7075 66° East 484 557 37,000  Level Indianapolis Center
Wed 12:09:09 AM 37.9706 -80.5994 63° Northeast 473 544 37,000  Level Washington Center
Wed 12:10:10 AM 38.0250 -80.4422 66° East 473 544 37,000  Level Washington Center
Wed 12:11:11 AM 38.0864 -80.2667 66° East 478 550 37,000  Level Washington Center
Wed 12:12:10 AM 38.1422 -80.1119 65° Northeast 484 557 37,000  Level Washington Center
Wed 12:13:10 AM 38.1981 -79.9567 65° Northeast 484 557 37,000  Level Washington Center
Wed 12:14:11 AM 38.2536 -79.8014 65° Northeast 484 557 37,000 -202 Level Washington Center
Wed 12:15:09 AM 38.3072 -79.6456 66° East 484 557 36,600 -900 Descending Washington Center
Wed 12:16:11 AM 38.3556 -79.5025 67° East 479 551 35,200 -2,049 Descending Washington Center
Wed 12:17:12 AM 38.4086 -79.3464 67° East 479 551 32,400 -2,975 Descending Washington Center
Wed 12:18:12 AM 38.4469 -79.1811 73° East 479 551 29,200 -2,319 Descending Washington Center
Wed 12:19:11 AM 38.4747 -79.0181 78° East 474 545 27,800 -1,714 Descending Washington Center
Wed 12:20:11 AM 38.5000 -78.8628 78° East 463 533 25,800 -1,934 Descending Washington Center
Wed 12:21:12 AM 38.5228 -78.7125 79° East 443 510 23,900 -1,850 Descending Washington Center
Wed 12:22:11 AM 38.5472 -78.5703 78° East 428 493 22,100 -1,800 Descending Washington Center
Wed 12:23:12 AM 38.5694 -78.4278 79° East 409 471 20,300 -1,765 Descending Washington Center
Wed 12:24:10 AM 38.5914 -78.2903 78° East 404 465 18,600 -1,563 Descending Washington Center
Wed 12:25:11 AM 38.6217 -78.1428 75° East 399 459 17,200 -1,664 Descending Washington Center
Wed 12:26:09 AM 38.6675 -78.0353 61° Northeast 387 445 15,300 -1,600 Descending Washington Center
Wed 12:27:11 AM 38.7033 -77.9194 68° East 365 420 14,000 -1,250 Descending Washington Center
Wed 12:28:09 AM 38.7428 -77.8142 64° Northeast 340 391 12,800 -1,311 Descending Washington Center
Wed 12:29:10 AM 38.8028 -77.7281 48° Northeast 323 372 11,400 -1,377 Descending Washington Center
Wed 12:30:11 AM 38.8503 -77.6256 59° Northeast 306 352 10,000 -1,340 Descending Washington Center
Wed 12:30:44 AM 38.8667 -77.5667 70° East 306 352 9,300 -1,241 Descending Potomac TRACON
Wed 12:31:38 AM 38.9000 -77.4667 67° East 306 352 8,200 -1,263 Descending Potomac TRACON
Wed 12:32:38 AM 38.8833 -77.3833 104° East 288 331 6,900 -1,300 Descending Potomac TRACON
Wed 12:33:38 AM 38.8333 -77.2833 123° Southeast 284 327 5,600 -1,526 Descending Potomac TRACON
Wed 12:34:32 AM 38.8000 -77.2333 131° Southeast 276 318 4,000 -1,474 Descending Potomac TRACON
Wed 12:35:32 AM 38.7500 -77.1500 128° Southeast 249 287 2,800 -895 Descending Potomac TRACON
Wed 12:36:26 AM 38.7500 -77.0833 90° East 221 254 2,300 -722 Descending Potomac TRACON
Wed 12:37:20 AM 38.7667 -77.0333 67° East 168 193 1,500 -789 Descending Potomac TRACON
Wed 12:38:20 AM 38.8000 -77.0333 360° North 145 167 800 -700 Descending Potomac TRACON

Login

Don't have an account? Register now (free) for customized features, flight alerts, and more!